sensor_id;sensor_type;location;lat;lon;timestamp;temperature;humidity
14551;DHT22;7362;50.956;4.184;2022-08-01T00:00:06;21.10;99.90
14551;DHT22;7362;50.956;4.184;2022-08-01T00:02:33;21.10;99.90
14551;DHT22;7362;50.956;4.184;2022-08-01T00:04:59;21.20;99.90
14551;DHT22;7362;50.956;4.184;2022-08-01T00:07:25;21.20;99.90
14551;DHT22;7362;50.956;4.184;2022-08-01T00:09:52;21.10;99.90
14551;DHT22;7362;50.956;4.184;2022-08-01T00:12:18;21.20;99.90
14551;DHT22;7362;50.956;4.184;2022-08-01T00:14:47;21.20;99.90
14551;DHT22;7362;50.956;4.184;2022-08-01T00:17:13;21.20;99.90
14551;DHT22;7362;50.956;4.184;2022-08-01T00:19:38;21.10;99.90
14551;DHT22;7362;50.956;4.184;2022-08-01T00:22:19;21.00;99.90
14551;DHT22;7362;50.956;4.184;2022-08-01T00:24:44;20.90;99.90
14551;DHT22;7362;50.956;4.184;2022-08-01T00:27:10;21.00;99.90
14551;DHT22;7362;50.956;4.184;2022-08-01T00:29:37;21.00;99.90
14551;DHT22;7362;50.956;4.184;2022-08-01T00:32:03;20.90;99.90
14551;DHT22;7362;50.956;4.184;2022-08-01T00:34:30;21.00;99.90
14551;DHT22;7362;50.956;4.184;2022-08-01T00:36:56;21.00;99.90
14551;DHT22;7362;50.956;4.184;2022-08-01T00:39:23;21.00;99.90
14551;DHT22;7362;50.956;4.184;2022-08-01T00:41:50;21.10;99.90
14551;DHT22;7362;50.956;4.184;2022-08-01T00:44:17;21.10;99.90
14551;DHT22;7362;50.956;4.184;2022-08-01T00:46:42;21.00;99.90
14551;DHT22;7362;50.956;4.184;2022-08-01T00:49:11;21.10;99.90
14551;DHT22;7362;50.956;4.184;2022-08-01T00:51:41;21.00;99.90
14551;DHT22;7362;50.956;4.184;2022-08-01T00:54:10;20.90;99.90
14551;DHT22;7362;50.956;4.184;2022-08-01T00:56:38;21.00;99.90
14551;DHT22;7362;50.956;4.184;2022-08-01T00:59:12;20.90;99.90
14551;DHT22;7362;50.956;4.184;2022-08-01T01:01:49;20.90;99.90
14551;DHT22;7362;50.956;4.184;2022-08-01T01:04:17;20.90;99.90
14551;DHT22;7362;50.956;4.184;2022-08-01T01:13:43;20.70;99.90
14551;DHT22;7362;50.956;4.184;2022-08-01T01:16:24;20.70;99.90
14551;DHT22;7362;50.956;4.184;2022-08-01T01:22:22;20.70;99.90
14551;DHT22;7362;50.956;4.184;2022-08-01T01:28:35;20.70;99.90
14551;DHT22;7362;50.956;4.184;2022-08-01T01:31:08;20.70;99.90
14551;DHT22;7362;50.956;4.184;2022-08-01T01:33:36;20.80;99.90
14551;DHT22;7362;50.956;4.184;2022-08-01T01:36:08;20.90;99.90
14551;DHT22;7362;50.956;4.184;2022-08-01T01:38:37;20.80;99.90
14551;DHT22;7362;50.956;4.184;2022-08-01T01:41:08;20.80;99.90
14551;DHT22;7362;50.956;4.184;2022-08-01T01:43:35;20.80;99.90
14551;DHT22;7362;50.956;4.184;2022-08-01T01:46:03;20.80;99.90
14551;DHT22;7362;50.956;4.184;2022-08-01T01:48:30;20.70;99.90
14551;DHT22;7362;50.956;4.184;2022-08-01T01:50:56;20.60;99.90
14551;DHT22;7362;50.956;4.184;2022-08-01T01:53:24;20.60;99.90
14551;DHT22;7362;50.956;4.184;2022-08-01T01:55:53;20.60;99.90
14551;DHT22;7362;50.956;4.184;2022-08-01T01:58:20;20.80;99.90
14551;DHT22;7362;50.956;4.184;2022-08-01T02:00:48;20.80;99.90
14551;DHT22;7362;50.956;4.184;2022-08-01T02:03:14;20.70;99.90
14551;DHT22;7362;50.956;4.184;2022-08-01T02:05:42;20.60;99.90
14551;DHT22;7362;50.956;4.184;2022-08-01T02:08:10;20.50;99.90
14551;DHT22;7362;50.956;4.184;2022-08-01T02:10:37;20.50;99.90
14551;DHT22;7362;50.956;4.184;2022-08-01T02:13:04;20.50;99.90
14551;DHT22;7362;50.956;4.184;2022-08-01T02:15:33;20.50;99.90
14551;DHT22;7362;50.956;4.184;2022-08-01T02:18:01;20.50;99.90
14551;DHT22;7362;50.956;4.184;2022-08-01T02:20:29;20.50;99.90
14551;DHT22;7362;50.956;4.184;2022-08-01T02:23:10;20.50;99.90
14551;DHT22;7362;50.956;4.184;2022-08-01T02:25:50;20.50;99.90
14551;DHT22;7362;50.956;4.184;2022-08-01T02:28:21;20.50;99.90
14551;DHT22;7362;50.956;4.184;2022-08-01T02:30:56;20.50;99.90
14551;DHT22;7362;50.956;4.184;2022-08-01T02:33:29;20.60;99.90
14551;DHT22;7362;50.956;4.184;2022-08-01T02:35:59;20.70;99.90
14551;DHT22;7362;50.956;4.184;2022-08-01T02:38:29;20.80;99.90
14551;DHT22;7362;50.956;4.184;2022-08-01T02:40:59;20.90;99.90
14551;DHT22;7362;50.956;4.184;2022-08-01T02:43:28;20.80;99.90
14551;DHT22;7362;50.956;4.184;2022-08-01T02:46:01;20.80;99.90
14551;DHT22;7362;50.956;4.184;2022-08-01T02:48:30;20.80;99.90
14551;DHT22;7362;50.956;4.184;2022-08-01T02:50:59;20.80;99.90
14551;DHT22;7362;50.956;4.184;2022-08-01T02:53:27;20.80;99.90
14551;DHT22;7362;50.956;4.184;2022-08-01T02:55:54;20.70;99.90
14551;DHT22;7362;50.956;4.184;2022-08-01T02:58:20;20.60;99.90
14551;DHT22;7362;50.956;4.184;2022-08-01T03:00:49;20.60;99.90
14551;DHT22;7362;50.956;4.184;2022-08-01T03:03:15;20.60;99.90
14551;DHT22;7362;50.956;4.184;2022-08-01T03:05:43;20.60;99.90
14551;DHT22;7362;50.956;4.184;2022-08-01T03:08:10;20.60;99.90
14551;DHT22;7362;50.956;4.184;2022-08-01T03:10:38;20.50;99.90
14551;DHT22;7362;50.956;4.184;2022-08-01T03:13:06;20.50;99.90
14551;DHT22;7362;50.956;4.184;2022-08-01T03:15:35;20.50;99.90
14551;DHT22;7362;50.956;4.184;2022-08-01T03:18:05;20.60;99.90
14551;DHT22;7362;50.956;4.184;2022-08-01T03:20:32;20.50;99.90
14551;DHT22;7362;50.956;4.184;2022-08-01T03:23:01;20.40;99.90
14551;DHT22;7362;50.956;4.184;2022-08-01T03:25:28;20.40;99.90
14551;DHT22;7362;50.956;4.184;2022-08-01T03:27:59;20.40;99.90
14551;DHT22;7362;50.956;4.184;2022-08-01T03:30:27;20.40;99.90
14551;DHT22;7362;50.956;4.184;2022-08-01T03:32:53;20.40;99.90
14551;DHT22;7362;50.956;4.184;2022-08-01T03:35:20;20.40;99.90
14551;DHT22;7362;50.956;4.184;2022-08-01T03:37:50;20.50;99.90
14551;DHT22;7362;50.956;4.184;2022-08-01T03:40:22;20.50;99.90
14551;DHT22;7362;50.956;4.184;2022-08-01T03:42:54;20.40;99.90
14551;DHT22;7362;50.956;4.184;2022-08-01T03:45:30;20.30;99.90
14551;DHT22;7362;50.956;4.184;2022-08-01T03:48:01;20.30;99.90
14551;DHT22;7362;50.956;4.184;2022-08-01T03:50:29;20.30;99.90
14551;DHT22;7362;50.956;4.184;2022-08-01T03:53:01;20.20;99.90
14551;DHT22;7362;50.956;4.184;2022-08-01T03:55:30;20.20;99.90
14551;DHT22;7362;50.956;4.184;2022-08-01T03:57:58;20.10;99.90
14551;DHT22;7362;50.956;4.184;2022-08-01T04:00:26;20.20;99.90
14551;DHT22;7362;50.956;4.184;2022-08-01T04:02:54;20.20;99.90
14551;DHT22;7362;50.956;4.184;2022-08-01T04:05:20;20.20;99.90
14551;DHT22;7362;50.956;4.184;2022-08-01T04:07:50;20.10;99.90
14551;DHT22;7362;50.956;4.184;2022-08-01T04:10:22;20.10;99.90
14551;DHT22;7362;50.956;4.184;2022-08-01T04:12:50;20.10;99.90
14551;DHT22;7362;50.956;4.184;2022-08-01T04:15:15;20.10;99.90
14551;DHT22;7362;50.956;4.184;2022-08-01T04:17:44;20.00;99.90
14551;DHT22;7362;50.956;4.184;2022-08-01T04:20:10;20.00;99.90
14551;DHT22;7362;50.956;4.184;2022-08-01T04:22:36;20.10;99.90
14551;DHT22;7362;50.956;4.184;2022-08-01T04:25:11;20.20;99.90
14551;DHT22;7362;50.956;4.184;2022-08-01T04:27:41;20.20;99.90
14551;DHT22;7362;50.956;4.184;2022-08-01T04:30:09;20.20;99.90
14551;DHT22;7362;50.956;4.184;2022-08-01T04:32:38;20.20;99.90
14551;DHT22;7362;50.956;4.184;2022-08-01T04:35:07;20.20;99.90
14551;DHT22;7362;50.956;4.184;2022-08-01T04:37:35;20.00;99.90
14551;DHT22;7362;50.956;4.184;2022-08-01T04:40:04;20.00;99.90
14551;DHT22;7362;50.956;4.184;2022-08-01T04:42:32;19.90;99.90
14551;DHT22;7362;50.956;4.184;2022-08-01T04:44:58;20.00;99.90
14551;DHT22;7362;50.956;4.184;2022-08-01T04:47:26;20.00;99.90
14551;DHT22;7362;50.956;4.184;2022-08-01T04:49:53;20.00;99.90
14551;DHT22;7362;50.956;4.184;2022-08-01T04:52:19;19.90;99.90
14551;DHT22;7362;50.956;4.184;2022-08-01T04:54:45;20.00;99.90
14551;DHT22;7362;50.956;4.184;2022-08-01T04:57:11;20.10;99.90
14551;DHT22;7362;50.956;4.184;2022-08-01T04:59:40;20.00;99.90
14551;DHT22;7362;50.956;4.184;2022-08-01T05:02:12;20.10;99.90
14551;DHT22;7362;50.956;4.184;2022-08-01T05:04:42;20.00;99.90
14551;DHT22;7362;50.956;4.184;2022-08-01T05:07:08;20.00;99.90
14551;DHT22;7362;50.956;4.184;2022-08-01T05:09:35;20.10;99.90
14551;DHT22;7362;50.956;4.184;2022-08-01T05:12:05;20.10;99.90
14551;DHT22;7362;50.956;4.184;2022-08-01T05:14:32;20.10;99.90
14551;DHT22;7362;50.956;4.184;2022-08-01T05:17:02;20.10;99.90
14551;DHT22;7362;50.956;4.184;2022-08-01T05:19:30;20.10;99.90
14551;DHT22;7362;50.956;4.184;2022-08-01T05:22:00;20.10;99.90
14551;DHT22;7362;50.956;4.184;2022-08-01T05:24:29;20.00;99.90
14551;DHT22;7362;50.956;4.184;2022-08-01T05:26:58;20.00;99.90
14551;DHT22;7362;50.956;4.184;2022-08-01T05:29:27;20.00;99.90
14551;DHT22;7362;50.956;4.184;2022-08-01T05:31:53;20.10;99.90
14551;DHT22;7362;50.956;4.184;2022-08-01T05:34:20;20.10;99.90
14551;DHT22;7362;50.956;4.184;2022-08-01T05:36:46;20.10;99.90
14551;DHT22;7362;50.956;4.184;2022-08-01T05:39:13;20.20;99.90
14551;DHT22;7362;50.956;4.184;2022-08-01T05:41:40;20.20;99.90
14551;DHT22;7362;50.956;4.184;2022-08-01T05:44:06;20.20;99.90
14551;DHT22;7362;50.956;4.184;2022-08-01T05:46:34;20.20;99.90
14551;DHT22;7362;50.956;4.184;2022-08-01T05:49:01;20.30;99.90
14551;DHT22;7362;50.956;4.184;2022-08-01T05:51:28;20.20;99.90
14551;DHT22;7362;50.956;4.184;2022-08-01T05:53:54;20.30;99.90
14551;DHT22;7362;50.956;4.184;2022-08-01T05:56:20;20.30;99.90
14551;DHT22;7362;50.956;4.184;2022-08-01T05:58:49;20.30;99.90
14551;DHT22;7362;50.956;4.184;2022-08-01T06:01:17;20.40;99.90
14551;DHT22;7362;50.956;4.184;2022-08-01T06:03:43;20.50;99.90
14551;DHT22;7362;50.956;4.184;2022-08-01T06:06:08;20.70;99.90
14551;DHT22;7362;50.956;4.184;2022-08-01T06:08:34;20.80;99.90
14551;DHT22;7362;50.956;4.184;2022-08-01T06:11:00;20.60;99.90
14551;DHT22;7362;50.956;4.184;2022-08-01T06:13:26;20.70;99.90
14551;DHT22;7362;50.956;4.184;2022-08-01T06:15:53;20.80;99.90
14551;DHT22;7362;50.956;4.184;2022-08-01T06:18:19;20.90;99.90
14551;DHT22;7362;50.956;4.184;2022-08-01T06:20:45;21.00;99.90
14551;DHT22;7362;50.956;4.184;2022-08-01T06:23:11;21.10;99.90
14551;DHT22;7362;50.956;4.184;2022-08-01T06:25:36;21.10;99.90
14551;DHT22;7362;50.956;4.184;2022-08-01T06:28:03;21.10;99.90
14551;DHT22;7362;50.956;4.184;2022-08-01T06:30:29;21.10;99.90
14551;DHT22;7362;50.956;4.184;2022-08-01T06:32:54;21.20;99.90
14551;DHT22;7362;50.956;4.184;2022-08-01T06:35:28;21.30;99.90
14551;DHT22;7362;50.956;4.184;2022-08-01T06:37:55;21.20;99.90
14551;DHT22;7362;50.956;4.184;2022-08-01T06:40:21;21.40;99.90
14551;DHT22;7362;50.956;4.184;2022-08-01T06:42:48;21.50;99.90
14551;DHT22;7362;50.956;4.184;2022-08-01T06:45:15;21.70;99.90
14551;DHT22;7362;50.956;4.184;2022-08-01T06:47:43;21.80;99.90
14551;DHT22;7362;50.956;4.184;2022-08-01T06:50:10;21.80;99.90
14551;DHT22;7362;50.956;4.184;2022-08-01T06:52:37;21.80;99.90
14551;DHT22;7362;50.956;4.184;2022-08-01T06:55:04;21.80;99.90
14551;DHT22;7362;50.956;4.184;2022-08-01T06:57:29;22.00;99.90
14551;DHT22;7362;50.956;4.184;2022-08-01T06:59:55;22.20;99.90
14551;DHT22;7362;50.956;4.184;2022-08-01T07:02:22;22.40;99.90
14551;DHT22;7362;50.956;4.184;2022-08-01T07:04:47;22.50;99.90
14551;DHT22;7362;50.956;4.184;2022-08-01T07:07:13;22.50;99.90
14551;DHT22;7362;50.956;4.184;2022-08-01T07:09:39;22.50;99.90
14551;DHT22;7362;50.956;4.184;2022-08-01T07:12:08;22.50;99.90
14551;DHT22;7362;50.956;4.184;2022-08-01T07:14:33;22.90;99.90
14551;DHT22;7362;50.956;4.184;2022-08-01T07:16:59;22.90;99.90
14551;DHT22;7362;50.956;4.184;2022-08-01T07:19:25;23.10;99.90
14551;DHT22;7362;50.956;4.184;2022-08-01T07:21:51;23.20;99.90
14551;DHT22;7362;50.956;4.184;2022-08-01T07:24:16;23.10;99.90
14551;DHT22;7362;50.956;4.184;2022-08-01T07:26:44;23.00;99.90
14551;DHT22;7362;50.956;4.184;2022-08-01T07:29:11;23.10;99.90
14551;DHT22;7362;50.956;4.184;2022-08-01T07:31:38;23.00;99.90
14551;DHT22;7362;50.956;4.184;2022-08-01T07:34:03;23.00;99.90
14551;DHT22;7362;50.956;4.184;2022-08-01T07:36:30;22.90;99.90
14551;DHT22;7362;50.956;4.184;2022-08-01T07:38:57;22.80;99.90
14551;DHT22;7362;50.956;4.184;2022-08-01T07:41:23;22.80;99.90
14551;DHT22;7362;50.956;4.184;2022-08-01T07:43:50;22.80;99.90
14551;DHT22;7362;50.956;4.184;2022-08-01T07:46:16;23.10;99.90
14551;DHT22;7362;50.956;4.184;2022-08-01T07:48:42;23.30;99.90
14551;DHT22;7362;50.956;4.184;2022-08-01T07:51:09;23.40;99.90
14551;DHT22;7362;50.956;4.184;2022-08-01T07:53:36;23.30;99.90
14551;DHT22;7362;50.956;4.184;2022-08-01T07:56:03;23.60;99.90
14551;DHT22;7362;50.956;4.184;2022-08-01T07:58:31;23.90;99.90
14551;DHT22;7362;50.956;4.184;2022-08-01T08:00:57;23.90;99.90
14551;DHT22;7362;50.956;4.184;2022-08-01T08:03:24;23.60;99.90
14551;DHT22;7362;50.956;4.184;2022-08-01T08:05:50;23.80;99.90
14551;DHT22;7362;50.956;4.184;2022-08-01T08:08:15;23.60;99.90
14551;DHT22;7362;50.956;4.184;2022-08-01T08:10:44;23.80;99.90
14551;DHT22;7362;50.956;4.184;2022-08-01T08:13:09;23.80;99.90
14551;DHT22;7362;50.956;4.184;2022-08-01T08:15:36;24.10;99.90
14551;DHT22;7362;50.956;4.184;2022-08-01T08:18:06;24.40;99.90
14551;DHT22;7362;50.956;4.184;2022-08-01T08:20:33;24.60;99.90
14551;DHT22;7362;50.956;4.184;2022-08-01T08:23:00;24.50;99.90
14551;DHT22;7362;50.956;4.184;2022-08-01T08:25:27;24.20;99.90
14551;DHT22;7362;50.956;4.184;2022-08-01T08:27:56;24.10;99.90
14551;DHT22;7362;50.956;4.184;2022-08-01T08:30:22;24.20;99.90
14551;DHT22;7362;50.956;4.184;2022-08-01T08:32:48;24.60;99.90
14551;DHT22;7362;50.956;4.184;2022-08-01T08:35:17;24.50;99.90
14551;DHT22;7362;50.956;4.184;2022-08-01T08:37:42;25.30;99.90
14551;DHT22;7362;50.956;4.184;2022-08-01T08:40:08;25.90;99.90
14551;DHT22;7362;50.956;4.184;2022-08-01T08:42:34;26.50;99.90
14551;DHT22;7362;50.956;4.184;2022-08-01T08:45:00;27.40;99.90
14551;DHT22;7362;50.956;4.184;2022-08-01T08:47:28;29.60;99.90
14551;DHT22;7362;50.956;4.184;2022-08-01T08:49:55;31.60;99.90
14551;DHT22;7362;50.956;4.184;2022-08-01T08:52:22;30.00;99.90
14551;DHT22;7362;50.956;4.184;2022-08-01T08:54:50;29.90;99.90
14551;DHT22;7362;50.956;4.184;2022-08-01T08:57:19;28.10;99.90
14551;DHT22;7362;50.956;4.184;2022-08-01T08:59:46;28.00;99.90
14551;DHT22;7362;50.956;4.184;2022-08-01T09:02:15;28.30;99.90
14551;DHT22;7362;50.956;4.184;2022-08-01T09:04:43;29.30;99.90
14551;DHT22;7362;50.956;4.184;2022-08-01T09:07:10;28.90;99.90
14551;DHT22;7362;50.956;4.184;2022-08-01T09:09:37;28.00;99.90
14551;DHT22;7362;50.956;4.184;2022-08-01T09:12:02;27.50;99.90
14551;DHT22;7362;50.956;4.184;2022-08-01T09:14:34;26.80;99.90
14551;DHT22;7362;50.956;4.184;2022-08-01T09:17:10;25.90;99.90
14551;DHT22;7362;50.956;4.184;2022-08-01T09:19:45;25.10;99.90
14551;DHT22;7362;50.956;4.184;2022-08-01T09:22:17;25.20;99.90
14551;DHT22;7362;50.956;4.184;2022-08-01T09:25:07;25.50;99.90
14551;DHT22;7362;50.956;4.184;2022-08-01T09:27:34;25.50;99.90
14551;DHT22;7362;50.956;4.184;2022-08-01T09:30:14;25.40;99.90
14551;DHT22;7362;50.956;4.184;2022-08-01T09:33:01;25.20;99.90
14551;DHT22;7362;50.956;4.184;2022-08-01T09:35:34;24.60;99.90
14551;DHT22;7362;50.956;4.184;2022-08-01T09:38:13;24.70;99.90
14551;DHT22;7362;50.956;4.184;2022-08-01T09:40:54;25.50;99.90
14551;DHT22;7362;50.956;4.184;2022-08-01T09:43:24;27.10;99.90
14551;DHT22;7362;50.956;4.184;2022-08-01T09:45:51;27.80;99.90
14551;DHT22;7362;50.956;4.184;2022-08-01T09:48:19;28.20;99.90
14551;DHT22;7362;50.956;4.184;2022-08-01T09:50:49;29.90;99.90
14551;DHT22;7362;50.956;4.184;2022-08-01T09:53:16;31.20;99.90
14551;DHT22;7362;50.956;4.184;2022-08-01T09:55:44;32.00;99.90
14551;DHT22;7362;50.956;4.184;2022-08-01T09:58:13;32.40;99.90
14551;DHT22;7362;50.956;4.184;2022-08-01T10:00:39;32.00;99.90
14551;DHT22;7362;50.956;4.184;2022-08-01T10:03:22;31.60;99.90
14551;DHT22;7362;50.956;4.184;2022-08-01T10:05:49;31.90;99.90
14551;DHT22;7362;50.956;4.184;2022-08-01T10:08:16;32.40;99.90
14551;DHT22;7362;50.956;4.184;2022-08-01T10:11:05;31.40;99.90
14551;DHT22;7362;50.956;4.184;2022-08-01T10:13:30;30.60;99.90
14551;DHT22;7362;50.956;4.184;2022-08-01T10:15:56;29.10;99.90
14551;DHT22;7362;50.956;4.184;2022-08-01T10:18:22;28.20;99.90
14551;DHT22;7362;50.956;4.184;2022-08-01T10:20:48;29.00;99.90
14551;DHT22;7362;50.956;4.184;2022-08-01T10:23:14;28.60;99.90
14551;DHT22;7362;50.956;4.184;2022-08-01T10:25:42;28.90;99.90
14551;DHT22;7362;50.956;4.184;2022-08-01T10:28:15;30.50;99.90
14551;DHT22;7362;50.956;4.184;2022-08-01T10:30:44;29.80;99.90
14551;DHT22;7362;50.956;4.184;2022-08-01T10:33:11;28.30;99.90
14551;DHT22;7362;50.956;4.184;2022-08-01T10:35:39;27.60;99.90
14551;DHT22;7362;50.956;4.184;2022-08-01T10:38:06;27.50;99.90
14551;DHT22;7362;50.956;4.184;2022-08-01T10:40:32;27.60;99.90
14551;DHT22;7362;50.956;4.184;2022-08-01T10:42:59;28.40;99.90
14551;DHT22;7362;50.956;4.184;2022-08-01T10:45:28;29.70;99.90
14551;DHT22;7362;50.956;4.184;2022-08-01T10:50:46;31.20;99.90
14551;DHT22;7362;50.956;4.184;2022-08-01T10:53:21;31.00;99.90
14551;DHT22;7362;50.956;4.184;2022-08-01T10:58:28;31.00;99.90
14551;DHT22;7362;50.956;4.184;2022-08-01T11:04:19;30.20;99.90
14551;DHT22;7362;50.956;4.184;2022-08-01T11:07:05;30.00;99.90
14551;DHT22;7362;50.956;4.184;2022-08-01T11:09:45;29.90;99.90
14551;DHT22;7362;50.956;4.184;2022-08-01T11:12:13;29.50;99.90
14551;DHT22;7362;50.956;4.184;2022-08-01T11:20:16;32.10;98.80
14551;DHT22;7362;50.956;4.184;2022-08-01T11:30:44;34.60;94.10
14551;DHT22;7362;50.956;4.184;2022-08-01T11:33:11;35.80;92.50
14551;DHT22;7362;50.956;4.184;2022-08-01T11:41:31;34.10;91.80
14551;DHT22;7362;50.956;4.184;2022-08-01T11:44:09;33.60;91.40
14551;DHT22;7362;50.956;4.184;2022-08-01T11:47:02;35.40;90.10
14551;DHT22;7362;50.956;4.184;2022-08-01T11:52:17;34.50;86.90
14551;DHT22;7362;50.956;4.184;2022-08-01T11:54:48;34.00;89.30
14551;DHT22;7362;50.956;4.184;2022-08-01T11:57:22;33.90;89.10
14551;DHT22;7362;50.956;4.184;2022-08-01T11:59:54;32.90;90.70
14551;DHT22;7362;50.956;4.184;2022-08-01T12:07:22;33.60;91.20
14551;DHT22;7362;50.956;4.184;2022-08-01T12:09:48;35.60;88.20
14551;DHT22;7362;50.956;4.184;2022-08-01T12:12:21;33.80;88.30
14551;DHT22;7362;50.956;4.184;2022-08-01T12:15:00;33.10;90.20
14551;DHT22;7362;50.956;4.184;2022-08-01T12:20:36;34.80;88.00
14551;DHT22;7362;50.956;4.184;2022-08-01T12:23:06;34.70;85.00
14551;DHT22;7362;50.956;4.184;2022-08-01T12:25:33;34.50;82.70
14551;DHT22;7362;50.956;4.184;2022-08-01T12:28:01;32.40;87.20
14551;DHT22;7362;50.956;4.184;2022-08-01T12:30:28;31.40;89.10
14551;DHT22;7362;50.956;4.184;2022-08-01T12:32:57;31.10;91.00
14551;DHT22;7362;50.956;4.184;2022-08-01T12:35:24;31.10;90.60
14551;DHT22;7362;50.956;4.184;2022-08-01T12:38:13;31.70;90.60
14551;DHT22;7362;50.956;4.184;2022-08-01T12:40:42;30.90;90.60
14551;DHT22;7362;50.956;4.184;2022-08-01T12:43:08;31.20;89.80
14551;DHT22;7362;50.956;4.184;2022-08-01T12:45:43;31.40;90.30
14551;DHT22;7362;50.956;4.184;2022-08-01T12:48:10;31.80;88.80
14551;DHT22;7362;50.956;4.184;2022-08-01T12:50:52;32.70;87.00
14551;DHT22;7362;50.956;4.184;2022-08-01T12:53:19;32.30;86.80
14551;DHT22;7362;50.956;4.184;2022-08-01T12:55:50;33.10;86.10
14551;DHT22;7362;50.956;4.184;2022-08-01T12:58:17;32.60;87.30
14551;DHT22;7362;50.956;4.184;2022-08-01T13:00:48;32.00;88.10
14551;DHT22;7362;50.956;4.184;2022-08-01T13:03:20;30.80;91.10
14551;DHT22;7362;50.956;4.184;2022-08-01T13:05:56;31.40;91.50
14551;DHT22;7362;50.956;4.184;2022-08-01T13:08:32;32.10;89.60
14551;DHT22;7362;50.956;4.184;2022-08-01T13:11:10;32.10;89.10
14551;DHT22;7362;50.956;4.184;2022-08-01T13:16:11;31.00;90.70
14551;DHT22;7362;50.956;4.184;2022-08-01T13:18:37;30.30;91.40
14551;DHT22;7362;50.956;4.184;2022-08-01T13:21:30;29.60;91.90
14551;DHT22;7362;50.956;4.184;2022-08-01T13:24:06;29.10;92.50
14551;DHT22;7362;50.956;4.184;2022-08-01T13:26:48;29.00;92.00
14551;DHT22;7362;50.956;4.184;2022-08-01T13:29:19;29.00;92.30
14551;DHT22;7362;50.956;4.184;2022-08-01T13:31:46;29.30;92.60
14551;DHT22;7362;50.956;4.184;2022-08-01T13:34:15;29.70;92.00
14551;DHT22;7362;50.956;4.184;2022-08-01T13:36:44;29.80;91.30
14551;DHT22;7362;50.956;4.184;2022-08-01T13:39:16;29.50;91.40
14551;DHT22;7362;50.956;4.184;2022-08-01T13:45:23;28.50;91.00
14551;DHT22;7362;50.956;4.184;2022-08-01T13:48:03;28.50;91.30
14551;DHT22;7362;50.956;4.184;2022-08-01T13:54:00;29.20;90.90
14551;DHT22;7362;50.956;4.184;2022-08-01T13:56:30;29.60;91.20
14551;DHT22;7362;50.956;4.184;2022-08-01T14:02:17;29.90;90.60
14551;DHT22;7362;50.956;4.184;2022-08-01T14:08:05;29.50;90.70
14551;DHT22;7362;50.956;4.184;2022-08-01T14:10:32;29.00;91.10
14551;DHT22;7362;50.956;4.184;2022-08-01T14:12:58;29.20;91.10
14551;DHT22;7362;50.956;4.184;2022-08-01T14:15:24;29.10;91.20
14551;DHT22;7362;50.956;4.184;2022-08-01T14:17:50;28.90;91.20
14551;DHT22;7362;50.956;4.184;2022-08-01T14:20:16;29.00;90.20
14551;DHT22;7362;50.956;4.184;2022-08-01T14:22:46;28.80;90.50
14551;DHT22;7362;50.956;4.184;2022-08-01T14:25:12;28.70;91.10
14551;DHT22;7362;50.956;4.184;2022-08-01T14:27:38;28.40;90.70
14551;DHT22;7362;50.956;4.184;2022-08-01T14:30:07;28.60;90.60
14551;DHT22;7362;50.956;4.184;2022-08-01T14:35:08;28.80;90.80
14551;DHT22;7362;50.956;4.184;2022-08-01T14:53:36;28.00;91.40
14551;DHT22;7362;50.956;4.184;2022-08-01T14:56:04;28.10;91.30
14551;DHT22;7362;50.956;4.184;2022-08-01T14:58:29;27.80;91.00
14551;DHT22;7362;50.956;4.184;2022-08-01T15:00:55;27.80;91.50
14551;DHT22;7362;50.956;4.184;2022-08-01T15:03:21;27.90;91.50
14551;DHT22;7362;50.956;4.184;2022-08-01T15:05:47;27.80;91.60
14551;DHT22;7362;50.956;4.184;2022-08-01T15:08:14;27.80;91.60
14551;DHT22;7362;50.956;4.184;2022-08-01T15:10:42;27.80;91.20
14551;DHT22;7362;50.956;4.184;2022-08-01T15:13:08;27.90;91.60
14551;DHT22;7362;50.956;4.184;2022-08-01T15:15:34;27.70;91.80
14551;DHT22;7362;50.956;4.184;2022-08-01T15:18:00;27.60;91.90
14551;DHT22;7362;50.956;4.184;2022-08-01T15:20:28;27.70;91.90
14551;DHT22;7362;50.956;4.184;2022-08-01T15:22:54;27.50;91.70
14551;DHT22;7362;50.956;4.184;2022-08-01T15:25:20;27.50;92.20
14551;DHT22;7362;50.956;4.184;2022-08-01T15:27:46;27.50;91.50
14551;DHT22;7362;50.956;4.184;2022-08-01T15:30:14;27.70;91.40
14551;DHT22;7362;50.956;4.184;2022-08-01T15:32:41;27.70;90.80
14551;DHT22;7362;50.956;4.184;2022-08-01T15:35:07;27.80;91.30
14551;DHT22;7362;50.956;4.184;2022-08-01T15:37:35;27.60;91.40
14551;DHT22;7362;50.956;4.184;2022-08-01T15:40:01;27.40;91.60
14551;DHT22;7362;50.956;4.184;2022-08-01T15:42:27;27.50;91.50
14551;DHT22;7362;50.956;4.184;2022-08-01T15:44:53;27.50;91.80
14551;DHT22;7362;50.956;4.184;2022-08-01T15:47:19;27.50;91.50
14551;DHT22;7362;50.956;4.184;2022-08-01T15:49:45;27.40;92.20
14551;DHT22;7362;50.956;4.184;2022-08-01T15:52:11;27.40;92.20
14551;DHT22;7362;50.956;4.184;2022-08-01T15:54:37;27.50;91.90
14551;DHT22;7362;50.956;4.184;2022-08-01T15:57:07;27.50;91.90
14551;DHT22;7362;50.956;4.184;2022-08-01T15:59:35;27.50;91.60
14551;DHT22;7362;50.956;4.184;2022-08-01T16:02:02;27.60;91.80
14551;DHT22;7362;50.956;4.184;2022-08-01T16:04:29;27.70;91.40
14551;DHT22;7362;50.956;4.184;2022-08-01T16:06:55;27.90;90.60
14551;DHT22;7362;50.956;4.184;2022-08-01T16:09:23;27.90;90.60
14551;DHT22;7362;50.956;4.184;2022-08-01T16:11:52;27.70;91.10
14551;DHT22;7362;50.956;4.184;2022-08-01T16:14:18;27.70;91.10
14551;DHT22;7362;50.956;4.184;2022-08-01T16:16:46;27.70;91.20
14551;DHT22;7362;50.956;4.184;2022-08-01T16:19:11;27.90;91.10
14551;DHT22;7362;50.956;4.184;2022-08-01T16:21:38;27.90;90.60
14551;DHT22;7362;50.956;4.184;2022-08-01T16:24:04;27.70;90.70
14551;DHT22;7362;50.956;4.184;2022-08-01T16:26:31;27.50;91.00
14551;DHT22;7362;50.956;4.184;2022-08-01T16:28:57;27.30;91.50
14551;DHT22;7362;50.956;4.184;2022-08-01T16:31:23;27.20;91.40
14551;DHT22;7362;50.956;4.184;2022-08-01T16:33:49;27.20;91.80
14551;DHT22;7362;50.956;4.184;2022-08-01T16:36:15;27.50;91.40
14551;DHT22;7362;50.956;4.184;2022-08-01T16:38:42;27.60;91.30
14551;DHT22;7362;50.956;4.184;2022-08-01T16:41:14;27.60;91.50
14551;DHT22;7362;50.956;4.184;2022-08-01T16:43:39;27.70;91.10
14551;DHT22;7362;50.956;4.184;2022-08-01T16:46:06;27.60;91.10
14551;DHT22;7362;50.956;4.184;2022-08-01T16:48:32;27.40;91.30
14551;DHT22;7362;50.956;4.184;2022-08-01T16:50:58;27.40;91.40
14551;DHT22;7362;50.956;4.184;2022-08-01T16:53:25;27.40;91.30
14551;DHT22;7362;50.956;4.184;2022-08-01T16:55:52;27.60;91.10
14551;DHT22;7362;50.956;4.184;2022-08-01T16:58:20;27.40;91.30
14551;DHT22;7362;50.956;4.184;2022-08-01T17:00:47;27.40;91.10
14551;DHT22;7362;50.956;4.184;2022-08-01T17:03:15;27.40;91.10
14551;DHT22;7362;50.956;4.184;2022-08-01T17:05:43;27.60;90.80
14551;DHT22;7362;50.956;4.184;2022-08-01T17:08:09;27.70;90.50
14551;DHT22;7362;50.956;4.184;2022-08-01T17:10:37;27.60;90.20
14551;DHT22;7362;50.956;4.184;2022-08-01T17:13:03;27.60;90.20
14551;DHT22;7362;50.956;4.184;2022-08-01T17:15:28;27.60;90.20
14551;DHT22;7362;50.956;4.184;2022-08-01T17:17:56;27.50;90.00
14551;DHT22;7362;50.956;4.184;2022-08-01T17:20:22;27.60;89.70